KEYW/EYW METAR and TAF weather

Enter ICAO airport designator
Station Type Date Time Source
KEYW METAR 2018/12/18 18:53 UTC NOAA

KEYW 181853Z 02006KT 10SM OVC085 22/14 A3006 RMK AO2 SLP177 T02170144


Station Type Date Time Source
KEYW Decoded METAR 2018/12/18 18:53 UTC NOAA

KEY WEST INTERNATIONAL AIRPORT , FL, United States (KEYW) 24-33N 81-46W 5M
Dec 18, 2018 - 01:53 PM EST / 2018.12.18 1853 UTC
Wind: from the NNE (020 degrees) at 7 MPH (6 KT):0
Visibility: 10 mile(s):0
Sky conditions: overcast
Temperature: 71.1 F (21.7 C)
Dew Point: 57.9 F (14.4 C)
Relative Humidity: 63%
Pressure (altimeter): 30.06 in. Hg (1017 hPa)
ob: KEYW 181853Z 02006KT 10SM OVC085 22/14 A3006 RMK AO2 SLP177 T02170144
cycle: 19

Station Type Date Time Source
KEYW TAF 2018/12/18 18:42 UTC NOAA

TAF KEYW 181739Z 1818/1918 04007KT P6SM BKN090
FM190300 09006KT P6SM FEW025 SCT090
FM191500 12009KT P6SM SCT025 BKN080


Example: see airport list